createdAt,value
2018-11-12T00:00:57.219Z,19.10
2018-11-12T00:03:25.452Z,18.43
2018-11-12T00:05:53.623Z,18.33
2018-11-12T00:08:21.833Z,16.20
2018-11-12T00:10:49.977Z,15.27
2018-11-12T00:13:18.248Z,19.53
2018-11-12T00:15:46.438Z,14.90
2018-11-12T00:18:14.545Z,17.63
2018-11-12T00:20:42.691Z,16.43
2018-11-12T00:23:10.829Z,16.53
2018-11-12T00:25:38.923Z,20.53
2018-11-12T00:28:07.072Z,17.10
2018-11-12T00:30:35.196Z,13.93
2018-11-12T00:33:03.316Z,16.40
2018-11-12T00:35:31.408Z,16.60
2018-11-12T00:37:59.504Z,14.60
2018-11-12T00:40:27.637Z,18.50
2018-11-12T00:42:55.752Z,19.13
2018-11-12T00:45:23.897Z,17.53
2018-11-12T00:47:52.059Z,16.43
2018-11-12T00:50:20.147Z,17.03
2018-11-12T00:52:48.314Z,18.17
2018-11-12T00:55:16.681Z,17.03
2018-11-12T00:57:45.166Z,16.43
2018-11-12T01:00:16.115Z,20.23
2018-11-12T01:02:45.427Z,18.83
2018-11-12T01:05:13.986Z,16.47
2018-11-12T01:07:42.102Z,18.03
2018-11-12T01:10:11.990Z,17.70
2018-11-12T01:12:40.452Z,16.53
2018-11-12T01:15:10.151Z,21.23
2018-11-12T01:17:38.447Z,22.30
2018-11-12T01:20:07.160Z,19.77
2018-11-12T01:22:35.259Z,21.33
2018-11-12T01:25:03.409Z,19.30
2018-11-12T01:27:31.555Z,20.87
2018-11-12T01:29:59.728Z,18.27
2018-11-12T01:32:27.815Z,18.87
2018-11-12T01:34:55.971Z,19.87
2018-11-12T01:37:24.134Z,20.40
2018-11-12T01:39:52.224Z,21.13
2018-11-12T01:42:20.328Z,25.13
2018-11-12T01:44:48.419Z,22.60
2018-11-12T01:47:16.531Z,24.33
2018-11-12T01:49:44.695Z,24.77
2018-11-12T01:52:12.803Z,30.13
2018-11-12T01:54:40.942Z,26.73
2018-11-12T01:57:09.036Z,25.90
2018-11-12T01:59:37.130Z,24.50
2018-11-12T02:02:05.687Z,26.63
2018-11-12T02:04:33.855Z,25.83
2018-11-12T02:07:01.977Z,29.73
2018-11-12T02:09:30.090Z,29.87
2018-11-12T02:11:58.183Z,28.23
2018-11-12T02:14:26.359Z,27.03
2018-11-12T02:16:54.535Z,28.37
2018-11-12T02:19:22.636Z,29.47
2018-11-12T02:21:50.771Z,27.73
2018-11-12T02:24:18.931Z,31.47
2018-11-12T02:26:47.023Z,27.33
2018-11-12T02:29:15.206Z,30.67
2018-11-12T02:31:43.336Z,31.03
2018-11-12T02:34:11.436Z,31.70
2018-11-12T02:36:39.532Z,32.53
2018-11-12T02:39:08.595Z,31.90
2018-11-12T02:41:36.713Z,35.97
2018-11-12T02:44:05.287Z,30.97
2018-11-12T02:46:33.417Z,33.93
2018-11-12T02:49:01.503Z,35.70
2018-11-12T02:51:29.671Z,30.53
2018-11-12T02:53:57.783Z,30.20
2018-11-12T02:56:25.907Z,29.90
2018-11-12T02:58:54.100Z,34.47
2018-11-12T03:01:22.674Z,32.43
2018-11-12T03:03:52.071Z,32.03
2018-11-12T03:06:20.548Z,30.57
2018-11-12T03:08:48.645Z,31.90
2018-11-12T03:11:16.749Z,35.80
2018-11-12T03:13:44.892Z,37.50
2018-11-12T03:16:13.338Z,31.43
2018-11-12T03:18:41.716Z,35.63
2018-11-12T03:21:09.802Z,37.00
2018-11-12T03:23:37.925Z,33.13
2018-11-12T03:26:06.018Z,37.67
2018-11-12T03:28:34.107Z,33.73
2018-11-12T03:31:02.197Z,35.63
2018-11-12T03:33:30.367Z,35.10
2018-11-12T03:35:58.554Z,34.27
2018-11-12T03:38:26.643Z,35.33
2018-11-12T03:40:54.848Z,33.63
2018-11-12T03:43:22.962Z,41.23
2018-11-12T03:45:51.087Z,42.13
2018-11-12T03:48:19.288Z,39.00
2018-11-12T03:50:47.384Z,36.33
2018-11-12T03:53:15.527Z,42.00
2018-11-12T03:55:43.713Z,36.33
2018-11-12T03:58:11.868Z,41.40
2018-11-12T04:00:40.202Z,41.77
2018-11-12T04:03:08.247Z,44.00
2018-11-12T04:05:36.404Z,44.83
2018-11-12T04:08:04.576Z,40.03
2018-11-12T04:10:32.753Z,39.03
2018-11-12T04:13:00.948Z,41.50
2018-11-12T04:15:29.121Z,43.40
2018-11-12T04:17:57.226Z,43.03
2018-11-12T04:20:25.839Z,44.63
2018-11-12T04:22:59.434Z,43.07
2018-11-12T04:25:27.540Z,41.50
2018-11-12T04:27:55.688Z,42.90
2018-11-12T04:30:23.862Z,42.90
2018-11-12T04:32:51.957Z,45.60
2018-11-12T04:35:20.138Z,46.00
2018-11-12T04:37:48.291Z,45.23
2018-11-12T04:40:17.791Z,49.30
2018-11-12T04:42:46.231Z,42.30
2018-11-12T04:45:15.377Z,49.07
2018-11-12T04:47:44.374Z,43.57
2018-11-12T04:50:14.186Z,41.53
2018-11-12T04:52:42.560Z,47.63
2018-11-12T04:55:12.228Z,46.33
2018-11-12T04:57:41.158Z,42.47
2018-11-12T05:00:10.679Z,42.07
2018-11-12T05:02:38.774Z,44.43
2018-11-12T05:05:07.447Z,53.67
2018-11-12T05:07:35.763Z,49.93
2018-11-12T05:10:04.420Z,44.20
2018-11-12T05:12:32.584Z,46.60
2018-11-12T05:15:00.695Z,47.63
2018-11-12T05:17:28.800Z,47.67
2018-11-12T05:19:56.980Z,49.80
2018-11-12T05:22:25.062Z,49.27
2018-11-12T05:24:53.151Z,51.83
2018-11-12T05:27:21.579Z,53.90
2018-11-12T05:29:49.813Z,56.43
2018-11-12T05:32:17.938Z,50.60
2018-11-12T05:34:46.158Z,51.83
2018-11-12T05:37:14.257Z,62.63
2018-11-12T05:39:42.391Z,52.67
2018-11-12T05:42:10.648Z,54.43
2018-11-12T05:44:38.751Z,57.40
2018-11-12T05:47:06.887Z,63.27
2018-11-12T05:49:35.018Z,62.77
2018-11-12T05:52:03.231Z,58.33
2018-11-12T05:54:31.428Z,57.63
2018-11-12T05:56:59.583Z,59.97
2018-11-12T05:59:27.667Z,57.47
2018-11-12T06:01:55.862Z,57.43
2018-11-12T06:04:23.981Z,62.60
2018-11-12T06:06:52.132Z,57.83
2018-11-12T06:09:20.286Z,65.70
2018-11-12T06:11:48.571Z,67.43
2018-11-12T06:14:16.752Z,57.07
2018-11-12T06:16:44.916Z,65.80
2018-11-12T06:19:13.010Z,61.90
2018-11-12T06:21:41.151Z,62.93
2018-11-12T06:24:09.411Z,64.00
2018-11-12T06:26:37.518Z,63.23
2018-11-12T06:29:05.816Z,55.27
2018-11-12T06:31:33.974Z,60.70
2018-11-12T06:34:02.381Z,62.37
2018-11-12T06:36:30.528Z,66.83
2018-11-12T06:38:58.715Z,68.20
2018-11-12T06:41:26.818Z,61.30
2018-11-12T06:43:54.970Z,55.33
2018-11-12T06:46:23.102Z,61.40
2018-11-12T06:48:51.208Z,64.47
2018-11-12T06:51:19.300Z,56.63
2018-11-12T06:53:47.415Z,64.13
2018-11-12T06:56:15.531Z,63.63
2018-11-12T06:58:43.663Z,58.93
2018-11-12T07:01:11.860Z,67.57
2018-11-12T07:03:41.146Z,59.43
2018-11-12T07:06:09.319Z,60.43
2018-11-12T07:08:37.513Z,57.60
2018-11-12T07:11:05.619Z,72.43
2018-11-12T07:13:33.784Z,67.93
2018-11-12T07:16:01.888Z,59.80
2018-11-12T07:18:29.992Z,63.17
2018-11-12T07:20:58.115Z,57.47
2018-11-12T07:23:26.238Z,65.10
2018-11-12T07:25:54.389Z,66.10
2018-11-12T07:28:22.508Z,65.83
2018-11-12T07:30:50.656Z,59.07
2018-11-12T07:33:18.863Z,68.43
2018-11-12T07:35:46.959Z,59.90
2018-11-12T07:38:15.071Z,58.33
2018-11-12T07:40:43.184Z,58.40
2018-11-12T07:43:11.336Z,56.47
2018-11-12T07:45:39.481Z,56.13
2018-11-12T07:48:07.601Z,51.43
2018-11-12T07:50:35.732Z,45.60
2018-11-12T07:53:03.887Z,55.83
2018-11-12T07:55:32.004Z,51.97
2018-11-12T07:58:00.186Z,49.83
2018-11-12T08:00:29.776Z,51.13
2018-11-12T08:03:03.553Z,44.33
2018-11-12T08:05:31.689Z,42.27
2018-11-12T08:07:59.923Z,40.13
2018-11-12T08:10:28.128Z,49.80
2018-11-12T08:12:56.255Z,40.43
2018-11-12T08:15:24.386Z,45.53
2018-11-12T08:17:52.500Z,42.93
2018-11-12T08:20:22.004Z,44.67
2018-11-12T08:22:50.909Z,40.80
2018-11-12T08:25:19.090Z,42.53
2018-11-12T08:27:47.652Z,44.00
2018-11-12T08:30:20.188Z,43.50
2018-11-12T08:32:49.523Z,41.53
2018-11-12T08:35:17.926Z,41.10
2018-11-12T08:37:46.622Z,46.07
2018-11-12T08:40:15.818Z,40.27
2018-11-12T08:42:44.376Z,39.97
2018-11-12T08:45:13.075Z,42.57
2018-11-12T08:47:42.268Z,43.40
2018-11-12T08:50:12.596Z,42.00
2018-11-12T08:52:41.894Z,37.33
2018-11-12T08:55:12.132Z,42.47
2018-11-12T08:57:41.433Z,46.17
2018-11-12T09:00:10.726Z,36.23
2018-11-12T09:02:38.978Z,40.63
2018-11-12T09:05:08.415Z,37.93
2018-11-12T09:07:36.774Z,34.50
2018-11-12T09:10:06.560Z,31.67
2018-11-12T09:12:34.655Z,35.47
2018-11-12T09:15:02.767Z,30.60
2018-11-12T09:17:30.884Z,29.17
2018-11-12T09:19:59.078Z,34.67
2018-11-12T09:22:27.234Z,36.60
2018-11-12T09:24:55.444Z,31.37
2018-11-12T09:27:23.616Z,32.80
2018-11-12T09:29:51.875Z,32.73
2018-11-12T09:32:19.984Z,34.27
2018-11-12T09:34:48.139Z,32.47
2018-11-12T09:37:16.368Z,25.67
2018-11-12T09:39:44.462Z,31.97
2018-11-12T09:42:12.579Z,29.47
2018-11-12T09:44:40.683Z,26.97
2018-11-12T09:47:08.784Z,23.57
2018-11-12T09:49:36.968Z,23.47
2018-11-12T09:52:05.643Z,22.00
2018-11-12T09:54:33.980Z,21.87
2018-11-12T09:57:02.009Z,24.47
2018-11-12T09:59:30.241Z,25.43
2018-11-12T10:01:59.285Z,21.07
2018-11-12T10:04:28.016Z,16.93
2018-11-12T10:06:56.582Z,20.53
2018-11-12T10:09:25.048Z,13.53
2018-11-12T10:11:52.635Z,12.90
2018-11-12T10:14:22.972Z,14.33
2018-11-12T10:16:50.289Z,12.07
2018-11-12T10:19:15.608Z,11.50
2018-11-12T10:21:43.714Z,10.27
2018-11-12T10:24:11.834Z,14.63
2018-11-12T10:26:39.967Z,16.87
2018-11-12T10:29:08.085Z,19.30
2018-11-12T10:31:36.215Z,15.73
2018-11-12T10:34:04.915Z,18.40
2018-11-12T10:36:32.989Z,19.60
2018-11-12T10:39:01.167Z,20.13
2018-11-12T10:41:29.320Z,19.57
2018-11-12T10:43:57.493Z,17.33
2018-11-12T10:46:26.608Z,21.90
2018-11-12T10:48:54.760Z,18.50
2018-11-12T10:55:04.901Z,15.20
2018-11-12T10:57:22.582Z,13.27
2018-11-12T10:59:50.812Z,14.17
2018-11-12T11:02:24.375Z,10.30
2018-11-12T11:04:52.539Z,9.93
2018-11-12T11:07:20.677Z,8.33
2018-11-12T11:09:48.792Z,10.73
2018-11-12T11:12:17.060Z,8.83
2018-11-12T11:14:45.175Z,11.07
2018-11-12T11:17:13.293Z,11.63
2018-11-12T11:19:41.514Z,10.33
2018-11-12T11:22:09.642Z,9.63
2018-11-12T11:24:37.786Z,14.77
2018-11-12T11:27:05.886Z,11.97
2018-11-12T11:29:34.088Z,12.87
2018-11-12T11:32:02.241Z,12.03
2018-11-12T11:34:30.351Z,13.90
2018-11-12T11:36:58.483Z,13.30
2018-11-12T11:39:26.704Z,12.20
2018-11-12T11:41:54.831Z,14.17
2018-11-12T11:44:22.939Z,13.60
2018-11-12T11:46:51.169Z,17.00
2018-11-12T11:49:19.387Z,17.17
2018-11-12T11:51:47.618Z,15.13
2018-11-12T11:54:15.685Z,17.50
2018-11-12T11:56:43.986Z,14.83
2018-11-12T11:59:12.067Z,16.73
2018-11-12T12:01:40.446Z,16.00
2018-11-12T12:04:08.533Z,17.70
2018-11-12T12:06:36.674Z,19.87
2018-11-12T12:09:06.139Z,19.83
2018-11-12T12:11:34.256Z,17.73
2018-11-12T12:14:02.435Z,15.50
2018-11-12T12:16:30.607Z,15.87
2018-11-12T12:18:58.764Z,15.30
2018-11-12T12:21:26.878Z,14.77
2018-11-12T12:23:55.057Z,11.70
2018-11-12T12:26:23.186Z,12.60
2018-11-12T12:28:51.374Z,12.27
2018-11-12T12:31:19.531Z,10.60
2018-11-12T12:33:47.615Z,10.17
2018-11-12T12:36:15.813Z,8.17
2018-11-12T12:38:43.943Z,8.73
2018-11-12T12:41:12.204Z,13.17
2018-11-12T12:43:40.315Z,10.93
2018-11-12T12:46:08.507Z,12.73
2018-11-12T12:48:36.651Z,13.90
2018-11-12T12:51:04.820Z,16.50
2018-11-12T12:53:33.020Z,14.30
2018-11-12T12:56:01.249Z,12.60
2018-11-12T12:58:29.352Z,15.80
2018-11-12T13:00:57.451Z,15.50
2018-11-12T13:03:25.615Z,11.07
2018-11-12T13:05:53.801Z,9.20
2018-11-12T13:08:22.031Z,8.93
2018-11-12T13:10:50.164Z,10.37
2018-11-12T13:13:18.283Z,10.30
2018-11-12T13:15:46.384Z,9.27
2018-11-12T13:18:14.517Z,9.37
2018-11-12T13:20:42.748Z,9.80
2018-11-12T13:23:10.866Z,9.57
2018-11-12T13:25:39.065Z,11.97
2018-11-12T13:28:07.217Z,10.40
2018-11-12T13:30:35.449Z,10.70
2018-11-12T13:33:03.559Z,9.10
2018-11-12T13:35:31.675Z,8.70
2018-11-12T13:37:59.822Z,9.03
2018-11-12T13:40:28.002Z,8.00
2018-11-12T13:42:57.490Z,7.77
2018-11-12T13:45:26.184Z,8.20
2018-11-12T13:47:54.673Z,6.50
2018-11-12T13:50:24.072Z,7.00
2018-11-12T13:52:52.772Z,6.87
2018-11-12T13:55:22.046Z,6.20
2018-11-12T13:57:50.254Z,6.30
2018-11-12T14:00:21.921Z,6.80
2018-11-12T14:02:50.686Z,6.87
2018-11-12T14:05:19.862Z,9.07
2018-11-12T14:07:48.128Z,7.63
2018-11-12T14:10:17.751Z,6.03
2018-11-12T14:12:46.024Z,7.13
2018-11-12T14:15:16.235Z,7.53
2018-11-12T14:17:44.956Z,7.03
2018-11-12T14:20:13.709Z,10.00
2018-11-12T14:22:41.840Z,7.03
2018-11-12T14:25:11.207Z,7.37
2018-11-12T14:27:39.456Z,8.60
2018-11-12T14:30:08.641Z,8.30
2018-11-12T14:32:36.785Z,8.50
2018-11-12T14:35:05.812Z,12.50
2018-11-12T14:37:34.131Z,8.93
2018-11-12T14:40:02.251Z,9.63
2018-11-12T14:42:30.353Z,8.97
2018-11-12T14:44:58.456Z,12.03
2018-11-12T14:47:26.597Z,9.57
2018-11-12T14:49:54.713Z,13.37
2018-11-12T14:52:23.003Z,9.27
2018-11-12T14:54:51.114Z,10.70
2018-11-12T14:57:19.214Z,11.33
2018-11-12T14:59:47.318Z,10.57
2018-11-12T15:02:15.454Z,10.90
2018-11-12T15:04:43.647Z,10.53
2018-11-12T15:07:11.771Z,10.10
2018-11-12T15:09:39.896Z,10.77
2018-11-12T15:12:08.009Z,12.93
2018-11-12T15:14:36.234Z,11.87
2018-11-12T15:17:04.388Z,11.93
2018-11-12T15:19:32.494Z,11.03
2018-11-12T15:22:01.031Z,11.57
2018-11-12T15:24:29.333Z,13.37
2018-11-12T15:26:57.487Z,11.27
2018-11-12T15:29:25.790Z,12.37
2018-11-12T15:31:53.964Z,12.17
2018-11-12T15:34:22.307Z,12.57
2018-11-12T15:36:50.583Z,15.57
2018-11-12T15:39:18.519Z,14.60
2018-11-12T15:41:46.641Z,14.63
2018-11-12T15:44:14.765Z,12.70
2018-11-12T15:46:42.942Z,12.40
2018-11-12T15:49:11.064Z,14.37
2018-11-12T15:51:39.207Z,11.87
2018-11-12T15:54:07.427Z,11.47
2018-11-12T15:56:35.565Z,13.37
2018-11-12T15:59:03.729Z,13.30
2018-11-12T16:01:31.846Z,12.43
2018-11-12T16:03:59.989Z,14.80
2018-11-12T16:06:28.152Z,14.43
2018-11-12T16:08:56.210Z,14.20
2018-11-12T16:11:24.496Z,15.07
2018-11-12T16:13:52.702Z,14.17
2018-11-12T16:16:20.856Z,13.97
2018-11-12T16:18:49.042Z,12.27
2018-11-12T16:21:17.179Z,14.77
2018-11-12T16:23:45.303Z,12.53
2018-11-12T16:26:13.408Z,12.90
2018-11-12T16:28:41.572Z,14.43
2018-11-12T16:31:09.681Z,14.33
2018-11-12T16:33:37.784Z,12.80
2018-11-12T16:36:05.925Z,13.60
2018-11-12T16:38:34.056Z,12.83
2018-11-12T16:41:02.178Z,12.87
2018-11-12T16:43:30.283Z,12.37
2018-11-12T16:45:58.615Z,14.50
2018-11-12T16:48:26.688Z,13.73
2018-11-12T16:50:54.797Z,14.50
2018-11-12T16:53:22.907Z,14.70
2018-11-12T16:55:51.001Z,15.23
2018-11-12T16:58:19.093Z,16.00
2018-11-12T17:00:47.245Z,16.70
2018-11-12T17:03:15.337Z,14.13
2018-11-12T17:05:43.435Z,18.33
2018-11-12T17:08:11.575Z,16.80
2018-11-12T17:10:39.671Z,16.87
2018-11-12T17:13:07.826Z,17.63
2018-11-12T17:15:36.006Z,19.60
2018-11-12T17:18:04.202Z,18.70
2018-11-12T17:20:32.337Z,19.37
2018-11-12T17:23:00.545Z,18.57
2018-11-12T17:25:28.601Z,20.40
2018-11-12T17:27:56.742Z,16.40
2018-11-12T17:30:24.854Z,18.03
2018-11-12T17:32:52.958Z,17.87
2018-11-12T17:35:22.016Z,18.80
2018-11-12T17:37:50.192Z,17.97
2018-11-12T17:40:19.898Z,19.13
2018-11-12T17:42:48.780Z,16.13
2018-11-12T17:45:18.088Z,18.13
2018-11-12T17:47:47.280Z,16.63
2018-11-12T17:50:15.449Z,17.63
2018-11-12T17:52:43.611Z,19.73
2018-11-12T17:55:12.208Z,21.30
2018-11-12T17:57:40.338Z,20.77
2018-11-12T18:00:10.285Z,21.73
2018-11-12T18:02:38.399Z,22.27
2018-11-12T18:05:06.624Z,24.07
2018-11-12T18:07:34.881Z,21.80
2018-11-12T18:10:02.989Z,23.53
2018-11-12T18:12:31.151Z,21.53
2018-11-12T18:14:59.260Z,24.23
2018-11-12T18:17:27.404Z,23.93
2018-11-12T18:19:55.523Z,22.17
2018-11-12T18:22:23.659Z,21.23
2018-11-12T18:24:53.336Z,20.27
2018-11-12T18:27:21.621Z,22.23
2018-11-12T18:29:51.096Z,21.77
2018-11-12T18:32:19.456Z,23.53
2018-11-12T18:34:48.327Z,23.07
2018-11-12T18:37:16.612Z,20.60
2018-11-12T18:39:44.842Z,21.03
2018-11-12T18:42:12.979Z,21.03
2018-11-12T18:44:41.085Z,23.37
2018-11-12T18:47:09.210Z,20.10
2018-11-12T18:49:37.330Z,20.40
2018-11-12T18:52:05.826Z,19.03
2018-11-12T18:54:33.963Z,20.10
2018-11-12T18:57:02.089Z,18.77
2018-11-12T18:59:30.201Z,18.80
2018-11-12T19:01:58.355Z,19.70
2018-11-12T19:04:26.487Z,19.20
2018-11-12T19:06:54.631Z,19.60
2018-11-12T19:09:22.719Z,20.13
2018-11-12T19:11:50.843Z,19.87
2018-11-12T19:14:18.965Z,18.20
2018-11-12T19:16:47.090Z,18.67
2018-11-12T19:19:15.275Z,20.27
2018-11-12T19:21:43.491Z,16.43
2018-11-12T19:24:11.636Z,16.83
2018-11-12T19:26:39.732Z,16.40
2018-11-12T19:29:07.853Z,14.30
2018-11-12T19:31:35.950Z,17.13
2018-11-12T19:34:04.107Z,15.63
2018-11-12T19:36:32.296Z,13.43
2018-11-12T19:39:00.382Z,13.10
2018-11-12T19:41:28.486Z,15.37
2018-11-12T19:43:56.574Z,13.53
2018-11-12T19:46:24.689Z,15.40
2018-11-12T19:48:52.854Z,13.87
2018-11-12T19:51:21.090Z,12.90
2018-11-12T19:53:49.090Z,14.60
2018-11-12T19:56:17.178Z,16.90
2018-11-12T19:58:45.284Z,11.23
2018-11-12T20:01:13.383Z,12.50
2018-11-12T20:03:41.478Z,12.40
2018-11-12T20:06:09.588Z,15.47
2018-11-12T20:08:37.689Z,15.00
2018-11-12T20:11:05.783Z,15.63
2018-11-12T20:13:33.891Z,16.63
2018-11-12T20:16:01.991Z,14.87
2018-11-12T20:18:30.103Z,16.13
2018-11-12T20:20:58.220Z,15.00
2018-11-12T20:23:26.350Z,14.80
2018-11-12T20:25:54.544Z,13.30
2018-11-12T20:28:22.738Z,14.07
2018-11-12T20:30:50.851Z,13.57
2018-11-12T20:33:19.001Z,13.43
2018-11-12T20:35:47.145Z,12.53
2018-11-12T20:38:15.296Z,14.57
2018-11-12T20:40:43.502Z,14.10
2018-11-12T20:43:11.634Z,12.37
2018-11-12T20:45:39.734Z,13.63
2018-11-12T20:48:07.931Z,13.20
2018-11-12T20:50:36.021Z,14.60
2018-11-12T20:53:04.376Z,13.73
2018-11-12T20:55:32.554Z,13.67
2018-11-12T20:58:00.738Z,14.97
2018-11-12T21:00:29.197Z,13.60
2018-11-12T21:02:57.567Z,13.70
2018-11-12T21:05:26.887Z,13.63
2018-11-12T21:07:55.066Z,16.27
2018-11-12T21:10:23.217Z,13.77
2018-11-12T21:12:51.644Z,14.47
2018-11-12T21:15:20.900Z,15.47
2018-11-12T21:17:49.052Z,14.43
2018-11-12T21:20:18.678Z,18.10
2018-11-12T21:22:46.799Z,14.40
2018-11-12T21:25:16.176Z,15.67
2018-11-12T21:27:44.328Z,23.03
2018-11-12T21:30:14.884Z,16.33
2018-11-12T21:32:43.059Z,16.20
2018-11-12T21:35:11.343Z,17.93
2018-11-12T21:37:39.490Z,18.17
2018-11-12T21:40:08.903Z,18.70
2018-11-12T21:42:37.022Z,18.30
2018-11-12T21:45:05.859Z,18.43
2018-11-12T21:47:33.968Z,18.50
2018-11-12T21:50:02.599Z,18.93
2018-11-12T21:52:30.680Z,17.77
2018-11-12T21:54:58.794Z,18.17
2018-11-12T21:57:26.925Z,16.83
2018-11-12T21:59:55.123Z,15.07
2018-11-12T22:02:23.415Z,16.37
2018-11-12T22:04:51.760Z,15.97
2018-11-12T22:07:19.897Z,14.10
2018-11-12T22:09:48.182Z,16.13
2018-11-12T22:12:16.307Z,14.17
2018-11-12T22:14:44.491Z,16.03
2018-11-12T22:17:12.600Z,14.00
2018-11-12T22:19:40.991Z,14.10
2018-11-12T22:22:09.013Z,17.43
2018-11-12T22:24:37.121Z,14.73
2018-11-12T22:27:05.385Z,17.07
2018-11-12T22:29:33.527Z,14.10
2018-11-12T22:32:01.663Z,15.47
2018-11-12T22:34:29.771Z,14.27
2018-11-12T22:36:58.085Z,13.37
2018-11-12T22:39:26.638Z,13.90
2018-11-12T22:41:54.839Z,13.27
2018-11-12T22:44:22.954Z,14.33
2018-11-12T22:46:51.058Z,16.57
2018-11-12T22:49:19.331Z,14.30
2018-11-12T22:51:47.437Z,13.63
2018-11-12T22:54:15.615Z,13.03
2018-11-12T22:56:43.770Z,14.17
2018-11-12T22:59:11.936Z,13.77
2018-11-12T23:01:40.051Z,12.80
2018-11-12T23:04:08.158Z,14.10
2018-11-12T23:06:36.263Z,13.57
2018-11-12T23:09:08.826Z,13.73
2018-11-12T23:11:37.003Z,14.97
2018-11-12T23:14:04.957Z,16.07
2018-11-12T23:16:33.059Z,14.17
2018-11-12T23:19:01.210Z,14.27
2018-11-12T23:21:29.486Z,15.30
2018-11-12T23:23:57.670Z,13.00
2018-11-12T23:26:25.978Z,14.47
2018-11-12T23:28:54.123Z,14.20
2018-11-12T23:31:22.357Z,15.37
2018-11-12T23:33:50.452Z,14.83
2018-11-12T23:36:18.584Z,18.00
2018-11-12T23:38:46.700Z,15.07
2018-11-12T23:41:14.868Z,16.10
2018-11-12T23:43:43.078Z,14.63
2018-11-12T23:46:11.215Z,15.80
2018-11-12T23:48:39.333Z,13.90
2018-11-12T23:51:07.471Z,14.93
2018-11-12T23:53:35.569Z,16.80
2018-11-12T23:56:03.706Z,15.67
2018-11-12T23:58:31.814Z,15.33
